Terminal Aerodrome Forecast
Issued by NWS Pocatello, ID

Home | Current Version | Previous Version | Text Only | Print | Product List | Glossary On
Versions: 1 2 3 4 5 6 7 8 9 10 11 12 13
857
FTUS45 KPIH 130520
TAFPIH
TAF
KPIH 130520Z 1306/1406 36007KT P6SM SCT140 BKN160
     FM131400 18010KT P6SM BKN050
     FM131800 23010G20KT P6SM BKN050 BKN180
     FM132100 24015G25KT P6SM BKN025 BKN200
     FM140100 23010KT P6SM BKN025 BKN200=

USA.gov is the U.S. government's official web portal to all federal, state and local government web resources and services.